Time;durP1;ratioP1;P1;durP2;ratioP2;P2;SDS_P1;SDS_P2;PMS_P1;PMS_P2;Temp;Humidity;BMP_temperature;BMP_pressure;BME280_temperature;BME280_humidity;BME280_pressure;Samples;Min_cycle;Max_cycle;Signal;HPM_P1;HPM_P2
2022/12/27 00:00:16;;;;;;;7.03;2.85;;;4.50;95.10;;;;;;5076899;28;20115;-68
2022/12/27 00:02:42;;;;;;;7.57;2.97;;;4.50;94.80;;;;;;5075600;28;20114;-68
2022/12/27 00:05:09;;;;;;;7.05;2.60;;;4.50;95.30;;;;;;5074657;28;20028;-68
2022/12/27 00:07:35;;;;;;;5.53;2.70;;;4.50;96.90;;;;;;5074640;28;20040;-67
2022/12/27 00:10:00;;;;;;;6.50;2.72;;;4.60;97.80;;;;;;5072599;28;20044;-67
2022/12/27 00:12:26;;;;;;;7.10;2.50;;;4.50;97.30;;;;;;5072717;28;20117;-68
2022/12/27 00:14:52;;;;;;;5.40;2.55;;;4.50;97.10;;;;;;5071292;28;20102;-68
2022/12/27 00:17:17;;;;;;;5.35;2.40;;;4.50;96.20;;;;;;5073258;28;20028;-68
2022/12/27 00:19:43;;;;;;;7.22;2.70;;;4.50;97.30;;;;;;5071302;28;20060;-68
2022/12/27 00:22:08;;;;;;;7.53;2.60;;;4.50;97.40;;;;;;5075689;28;20029;-68
2022/12/27 00:24:34;;;;;;;9.13;2.72;;;4.60;98.00;;;;;;5076764;28;20413;-67
2022/12/27 00:27:00;;;;;;;8.27;3.03;;;4.70;98.00;;;;;;5070489;28;20425;-68
2022/12/27 00:29:25;;;;;;;7.63;2.38;;;4.70;98.00;;;;;;5073050;28;20422;-68
2022/12/27 00:31:51;;;;;;;4.55;2.25;;;4.70;98.00;;;;;;5070617;28;20722;-68
2022/12/27 00:34:17;;;;;;;9.65;2.60;;;4.70;98.00;;;;;;5076540;28;20075;-67
2022/12/27 00:36:42;;;;;;;6.10;3.10;;;4.80;98.00;;;;;;5072389;28;20025;-68
2022/12/27 00:39:09;;;;;;;5.45;2.30;;;4.70;98.00;;;;;;5075161;28;20024;-68
2022/12/27 00:41:35;;;;;;;5.85;2.67;;;4.70;98.00;;;;;;5076911;28;20425;-67
2022/12/27 00:44:01;;;;;;;10.70;2.45;;;4.70;98.00;;;;;;5075551;28;20035;-68
2022/12/27 00:46:26;;;;;;;9.77;2.55;;;4.70;98.00;;;;;;5075153;28;20025;-68
2022/12/27 00:48:54;;;;;;;5.53;2.28;;;4.70;98.00;;;;;;5075304;28;20429;-68
2022/12/27 00:51:22;;;;;;;6.45;2.20;;;4.60;98.00;;;;;;5070383;28;20077;-67
2022/12/27 00:53:49;;;;;;;5.35;2.90;;;4.60;98.00;;;;;;5075056;28;20019;-67
2022/12/27 00:56:29;;;;;;;6.78;2.53;;;4.60;97.90;;;;;;5075398;28;20089;-68
2022/12/27 00:59:00;;;;;;;6.07;2.10;;;4.60;98.00;;;;;;5070405;28;20068;-68
2022/12/27 01:01:28;;;;;;;6.03;2.63;;;4.60;98.00;;;;;;5071994;28;20313;-69
2022/12/27 01:03:55;;;;;;;6.53;2.50;;;4.50;98.00;;;;;;5072336;28;20030;-68
2022/12/27 01:06:28;;;;;;;6.03;2.60;;;4.50;98.00;;;;;;5073814;28;20028;-68
2022/12/27 01:08:54;;;;;;;4.22;2.20;;;4.50;98.00;;;;;;5057145;28;20032;-68
2022/12/27 01:11:21;;;;;;;5.53;2.28;;;4.50;98.00;;;;;;5077453;28;20021;-68
2022/12/27 01:13:46;;;;;;;5.05;2.25;;;4.50;98.00;;;;;;5073310;28;20056;-68
2022/12/27 01:16:15;;;;;;;6.40;2.15;;;4.50;98.00;;;;;;5074381;28;20427;-68
2022/12/27 01:18:41;;;;;;;7.30;2.30;;;4.50;98.00;;;;;;5073116;28;20028;-68
2022/12/27 01:21:08;;;;;;;6.53;2.55;;;4.40;98.00;;;;;;5074990;28;20364;-68
2022/12/27 01:23:38;;;;;;;11.18;2.47;;;4.40;98.00;;;;;;5067586;28;20025;-68
2022/12/27 01:26:07;;;;;;;4.63;2.40;;;4.30;98.00;;;;;;5055833;28;20117;-67
2022/12/27 01:28:33;;;;;;;8.82;2.20;;;4.30;98.00;;;;;;5072466;28;20064;-67
2022/12/27 01:31:05;;;;;;;6.13;2.33;;;4.30;98.00;;;;;;5069404;28;20139;-67
2022/12/27 01:33:30;;;;;;;7.72;2.55;;;4.30;98.00;;;;;;5071347;28;20024;-67
2022/12/27 01:35:56;;;;;;;4.95;2.17;;;4.20;98.00;;;;;;5075640;28;20024;-68
2022/12/27 01:38:21;;;;;;;6.22;2.30;;;4.20;98.00;;;;;;5074870;28;20040;-66
2022/12/27 01:40:47;;;;;;;6.38;2.75;;;4.10;98.00;;;;;;5076089;28;20431;-69
2022/12/27 01:43:17;;;;;;;5.30;2.20;;;4.10;98.00;;;;;;5075593;28;20025;-68
2022/12/27 01:45:44;;;;;;;6.07;2.08;;;4.10;98.00;;;;;;5074571;28;20025;-68
2022/12/27 01:48:22;;;;;;;5.95;2.22;;;4.10;98.00;;;;;;5075202;28;20071;-68
2022/12/27 01:51:02;;;;;;;3.85;2.08;;;4.10;98.00;;;;;;5034410;28;20104;-68
2022/12/27 01:53:37;;;;;;;5.53;2.30;;;4.20;98.00;;;;;;5074427;28;20112;-68
2022/12/27 01:56:08;;;;;;;7.75;2.45;;;4.10;98.00;;;;;;5056236;28;20071;-68
2022/12/27 01:59:01;;;;;;;6.93;2.15;;;4.10;98.00;;;;;;5074036;28;20051;-68
2022/12/27 02:01:31;;;;;;;4.97;2.33;;;4.10;97.80;;;;;;5059022;28;20033;-68
2022/12/27 02:04:06;;;;;;;4.90;2.45;;;4.00;97.80;;;;;;5071922;28;20412;-68
2022/12/27 02:06:34;;;;;;;6.90;2.67;;;4.00;96.70;;;;;;5070012;28;20029;-68
2022/12/27 02:09:09;;;;;;;6.93;2.88;;;3.90;96.40;;;;;;5070197;28;20021;-69
2022/12/27 02:11:51;;;;;;;10.88;2.72;;;4.00;96.60;;;;;;5074647;28;20111;-69
2022/12/27 02:14:30;;;;;;;7.30;2.50;;;4.00;96.80;;;;;;5070062;28;20417;-68
2022/12/27 02:16:59;;;;;;;7.18;2.70;;;3.90;96.40;;;;;;5071111;28;20051;-68
2022/12/27 02:19:39;;;;;;;6.35;2.50;;;3.90;97.10;;;;;;5064163;28;20025;-68
2022/12/27 02:24:01;;;;;;;11.27;3.20;;;3.80;96.50;;;;;;5069864;28;20652;-68
2022/12/27 02:25:50;;;;;;;9.63;3.50;;;3.70;96.30;;;;;;5068101;28;20444;-68
2022/12/27 02:28:18;;;;;;;7.72;2.72;;;3.60;96.50;;;;;;5061729;28;20456;-68
2022/12/27 02:30:47;;;;;;;7.88;2.55;;;3.50;96.20;;;;;;5064899;28;20032;-68
2022/12/27 02:33:23;;;;;;;7.63;2.47;;;3.40;95.80;;;;;;5073022;28;20034;-68
2022/12/27 02:35:54;;;;;;;7.78;2.72;;;3.30;96.90;;;;;;5041907;28;20078;-68
2022/12/27 02:38:26;;;;;;;5.85;2.60;;;3.10;96.00;;;;;;5044971;28;20142;-68
2022/12/27 02:53:08;;;;;;;9.95;2.97;;;2.40;92.40;;;;;;5061596;28;20035;-68
2022/12/27 02:58:38;;;;;;;5.28;2.80;;;2.20;91.90;;;;;;5061050;28;20075;-68
2022/12/27 03:04:23;;;;;;;8.20;3.25;;;2.10;90.60;;;;;;5060649;28;20488;-68
2022/12/27 03:07:02;;;;;;;8.85;4.50;;;2.00;90.60;;;;;;5069152;28;20237;-68
2022/12/27 03:18:15;;;;;;;7.50;2.85;;;1.80;90.60;;;;;;5055864;28;20039;-68
2022/12/27 03:26:16;;;;;;;9.02;3.08;;;1.50;90.80;;;;;;5054388;28;20128;-68
2022/12/27 03:34:30;;;;;;;6.57;3.08;;;1.40;90.40;;;;;;5054476;28;20098;-67
2022/12/27 03:40:08;;;;;;;6.50;3.05;;;1.30;90.00;;;;;;5070712;28;20074;-68
2022/12/27 03:48:22;;;;;;;7.53;3.00;;;1.40;92.30;;;;;;5071654;28;20031;-66
2022/12/27 03:50:55;;;;;;;4.90;2.60;;;1.40;93.70;;;;;;5072662;28;20025;-68
2022/12/27 03:53:29;;;;;;;8.63;2.90;;;1.40;94.90;;;;;;5075358;28;20027;-67
2022/12/27 03:55:55;;;;;;;4.88;2.70;;;1.20;94.30;;;;;;5075069;28;20021;-67
2022/12/27 03:58:20;;;;;;;5.13;2.40;;;1.10;93.60;;;;;;5074775;28;20049;-68
2022/12/27 04:00:46;;;;;;;5.25;2.42;;;1.10;92.90;;;;;;5076541;28;20073;-68
2022/12/27 04:03:15;;;;;;;6.47;2.72;;;1.00;92.60;;;;;;5074676;28;20090;-67
2022/12/27 04:05:40;;;;;;;4.97;2.45;;;1.00;92.30;;;;;;5073319;28;20020;-68
2022/12/27 04:35:27;;;;;;;4.10;2.30;;;0.70;92.50;;;;;;5065638;28;20039;-69
2022/12/27 04:37:52;;;;;;;8.85;2.50;;;0.80;94.30;;;;;;5066897;28;20040;-69
2022/12/27 04:56:42;;;;;;;5.93;1.77;;;0.90;98.00;;;;;;5073370;28;20055;-68
2022/12/27 05:02:04;;;;;;;6.35;2.13;;;0.90;98.00;;;;;;5075691;28;20035;-68
2022/12/27 05:04:35;;;;;;;7.78;2.00;;;0.80;98.00;;;;;;5071006;28;20111;-68
2022/12/27 05:13:58;;;;;;;4.82;1.67;;;0.90;98.00;;;;;;5074051;28;20024;-68
2022/12/27 05:15:15;;;;;;;4.80;1.73;;;0.80;98.00;;;;;;5065051;28;20035;-68
2022/12/27 05:17:41;;;;;;;6.20;2.08;;;0.80;98.00;;;;;;5073052;28;20380;-69
2022/12/27 05:20:07;;;;;;;3.67;1.80;;;0.70;98.00;;;;;;5074998;28;20028;-68
2022/12/27 05:25:36;;;;;;;6.15;2.10;;;0.50;98.00;;;;;;5072492;28;20436;-68
2022/12/27 05:28:02;;;;;;;4.03;2.15;;;0.40;98.00;;;;;;5068793;28;20443;-68
2022/12/27 05:30:28;;;;;;;4.13;1.70;;;0.30;98.00;;;;;;5072975;28;20033;-68
2022/12/27 05:32:54;;;;;;;5.45;3.15;;;0.20;98.00;;;;;;5073188;28;20029;-68
2022/12/27 05:35:20;;;;;;;6.95;2.15;;;0.10;98.00;;;;;;5072800;28;20417;-68
2022/12/27 05:37:46;;;;;;;6.68;2.88;;;0.00;96.80;;;;;;5069741;28;20053;-68
2022/12/27 05:40:12;;;;;;;5.18;2.08;;;0.00;95.80;;;;;;5066733;28;20029;-68
2022/12/27 05:42:37;;;;;;;4.28;1.70;;;-0.10;95.20;;;;;;5072702;28;20036;-68
2022/12/27 05:45:03;;;;;;;7.97;2.08;;;-0.20;93.90;;;;;;5073757;28;20050;-68
2022/12/27 05:47:28;;;;;;;4.38;2.30;;;-0.20;93.00;;;;;;5070035;28;20054;-68
2022/12/27 05:49:57;;;;;;;5.43;1.95;;;-0.30;93.20;;;;;;5072999;28;20020;-68
2022/12/27 05:52:23;;;;;;;4.50;2.00;;;-0.30;92.50;;;;;;5054706;28;20320;-68
2022/12/27 05:54:48;;;;;;;5.72;2.00;;;-0.50;91.70;;;;;;5075494;28;20021;-68
2022/12/27 05:57:14;;;;;;;6.15;2.75;;;-0.50;91.40;;;;;;5072781;28;20032;-68
2022/12/27 05:59:39;;;;;;;5.95;2.70;;;-0.50;90.50;;;;;;5073076;28;20499;-68
2022/12/27 06:02:05;;;;;;;3.88;1.98;;;-0.50;90.40;;;;;;5071896;28;20382;-67
2022/12/27 06:04:31;;;;;;;9.85;3.10;;;-0.50;89.50;;;;;;5066132;28;20441;-68
2022/12/27 06:06:58;;;;;;;5.72;2.60;;;-0.40;89.80;;;;;;5071123;28;20681;-67
2022/12/27 06:09:24;;;;;;;6.70;2.40;;;-0.50;90.60;;;;;;5072516;28;20024;-67
2022/12/27 06:11:49;;;;;;;6.50;2.20;;;-0.30;88.50;;;;;;5068847;28;20075;-67
2022/12/27 06:14:15;;;;;;;6.75;2.10;;;0.00;91.10;;;;;;5071351;28;20025;-68
2022/12/27 06:16:40;;;;;;;5.80;3.10;;;0.10;92.70;;;;;;5067123;28;20044;-68
2022/12/27 06:19:06;;;;;;;5.15;2.28;;;0.20;95.30;;;;;;5069890;28;20054;-68
2022/12/27 06:21:31;;;;;;;4.60;2.38;;;0.00;95.80;;;;;;5066724;28;20078;-68
2022/12/27 06:23:57;;;;;;;7.93;2.45;;;-0.10;95.50;;;;;;5074250;28;20036;-68
2022/12/27 06:26:26;;;;;;;4.88;2.03;;;-0.30;94.80;;;;;;5052048;28;20107;-67
2022/12/27 06:28:55;;;;;;;7.28;2.22;;;-0.30;92.70;;;;;;5045467;28;20040;-68
2022/12/27 06:31:21;;;;;;;4.90;2.05;;;-0.30;93.20;;;;;;5072587;28;20321;-67
2022/12/27 06:33:47;;;;;;;6.18;2.40;;;-0.30;92.20;;;;;;5070114;28;20028;-69
2022/12/27 06:36:15;;;;;;;9.65;2.50;;;-0.20;91.60;;;;;;5068555;28;20033;-68
2022/12/27 06:38:41;;;;;;;13.48;5.20;;;-0.20;91.90;;;;;;5072400;28;20028;-68
2022/12/27 06:41:09;;;;;;;8.57;3.67;;;-0.20;93.10;;;;;;5066609;28;20032;-68
2022/12/27 06:43:35;;;;;;;6.43;2.08;;;-0.20;91.80;;;;;;5059320;28;20028;-67
2022/12/27 06:46:04;;;;;;;8.07;2.10;;;-0.10;92.10;;;;;;5055839;28;20362;-68
2022/12/27 06:48:30;;;;;;;6.63;2.38;;;0.20;93.90;;;;;;5072949;28;20029;-68
2022/12/27 06:50:56;;;;;;;6.50;2.85;;;0.50;97.50;;;;;;5057674;28;20016;-68
2022/12/27 06:53:21;;;;;;;7.80;4.10;;;0.70;98.00;;;;;;5074675;28;20086;-68
2022/12/27 06:55:47;;;;;;;7.10;2.70;;;0.80;98.00;;;;;;5073724;28;20368;-68
2022/12/27 06:58:13;;;;;;;11.77;3.95;;;0.90;98.00;;;;;;5068916;28;20123;-68
2022/12/27 07:00:40;;;;;;;9.68;3.60;;;1.10;98.00;;;;;;5072651;28;20025;-67
2022/12/27 07:03:06;;;;;;;10.88;3.38;;;1.30;98.00;;;;;;5074134;28;20028;-67
2022/12/27 07:05:34;;;;;;;6.50;3.20;;;1.30;98.00;;;;;;5073105;28;20031;-68
2022/12/27 07:07:59;;;;;;;8.20;3.67;;;1.20;98.00;;;;;;5062569;28;20094;-68
2022/12/27 07:10:25;;;;;;;8.70;3.10;;;1.20;98.00;;;;;;5073353;28;20371;-68
2022/12/27 07:12:50;;;;;;;8.70;3.28;;;1.10;98.00;;;;;;5075175;28;20047;-67
2022/12/27 07:15:16;;;;;;;8.75;3.80;;;1.10;98.00;;;;;;5072767;28;20071;-67
2022/12/27 07:17:41;;;;;;;9.75;4.78;;;1.10;98.00;;;;;;5053116;28;20029;-66
2022/12/27 07:20:08;;;;;;;11.82;4.95;;;0.80;98.00;;;;;;5074400;28;20024;-67
2022/12/27 07:22:33;;;;;;;12.55;4.72;;;0.50;98.00;;;;;;5079158;28;20036;-67
2022/12/27 07:25:02;;;;;;;9.65;4.07;;;0.20;97.80;;;;;;5051411;28;20033;-70
2022/12/27 07:27:27;;;;;;;8.43;4.30;;;0.10;95.60;;;;;;5073299;28;20028;-68
2022/12/27 07:29:53;;;;;;;9.90;5.13;;;0.10;94.80;;;;;;5078287;28;20047;-68
2022/12/27 07:32:21;;;;;;;15.48;7.03;;;0.10;92.80;;;;;;5078323;28;20028;-68
2022/12/27 07:34:47;;;;;;;22.67;9.27;;;0.10;93.40;;;;;;5073319;28;20127;-68
2022/12/27 07:37:12;;;;;;;17.52;7.32;;;0.10;93.40;;;;;;5059722;28;20064;-67
2022/12/27 07:39:38;;;;;;;22.45;8.65;;;0.00;92.90;;;;;;5077843;28;20024;-67
2022/12/27 07:42:03;;;;;;;20.38;9.73;;;-0.10;92.30;;;;;;5071656;28;20052;-67
2022/12/27 07:44:29;;;;;;;17.60;7.70;;;-0.10;91.60;;;;;;5076278;28;20085;-67
2022/12/27 07:46:55;;;;;;;12.27;6.20;;;-0.20;91.50;;;;;;5077389;28;20021;-67
2022/12/27 07:49:21;;;;;;;12.13;6.68;;;-0.20;90.00;;;;;;5077750;28;20074;-68
2022/12/27 07:51:47;;;;;;;16.20;8.70;;;-0.10;89.30;;;;;;5078607;28;20023;-69
2022/12/27 07:54:12;;;;;;;24.63;13.40;;;-0.10;89.40;;;;;;5078616;28;20309;-67
2022/12/27 07:56:38;;;;;;;13.85;5.47;;;0.00;88.10;;;;;;5060603;28;20025;-69
2022/12/27 07:59:03;;;;;;;12.75;5.68;;;0.20;87.10;;;;;;5076382;28;20052;-66
2022/12/27 08:02:02;;;;;;;15.77;6.15;;;0.30;90.70;;;;;;5078807;28;20100;-67
2022/12/27 08:04:19;;;;;;;11.68;6.43;;;0.20;91.40;;;;;;5074246;28;20028;-67
2022/12/27 08:06:44;;;;;;;7.50;3.63;;;0.40;90.60;;;;;;5078434;28;20101;-67
2022/12/27 08:09:13;;;;;;;13.85;6.10;;;0.20;93.00;;;;;;5075081;28;20035;-66
2022/12/27 08:11:39;;;;;;;40.05;19.42;;;0.10;92.50;;;;;;5069374;28;20094;-67
2022/12/27 08:14:04;;;;;;;25.80;11.05;;;0.10;91.80;;;;;;5074160;28;20025;-67
2022/12/27 08:16:30;;;;;;;8.45;3.38;;;0.20;90.00;;;;;;5077030;28;20067;-66
2022/12/27 08:18:55;;;;;;;14.23;6.82;;;0.60;91.40;;;;;;5074231;28;20032;-67
2022/12/27 08:21:22;;;;;;;5.88;2.03;;;0.70;94.40;;;;;;5076576;28;20309;-67
2022/12/27 08:23:48;;;;;;;9.30;5.78;;;0.90;95.60;;;;;;5075568;28;20043;-66
2022/12/27 08:26:14;;;;;;;10.10;5.75;;;0.90;97.80;;;;;;5077072;28;20115;-67
2022/12/27 08:28:39;;;;;;;10.88;5.88;;;1.00;97.10;;;;;;5068738;28;20308;-67
2022/12/27 08:31:07;;;;;;;12.05;7.00;;;1.10;98.00;;;;;;5077457;28;20016;-67
2022/12/27 08:33:33;;;;;;;8.35;4.50;;;1.10;97.40;;;;;;5073743;28;20021;-67
2022/12/27 08:36:06;;;;;;;8.38;4.07;;;1.30;98.00;;;;;;5076119;28;20025;-67
2022/12/27 08:38:32;;;;;;;8.35;4.72;;;1.60;96.20;;;;;;5077028;28;20032;-67
2022/12/27 08:40:58;;;;;;;4.22;2.13;;;2.40;98.00;;;;;;5076698;28;20025;-66
2022/12/27 08:43:23;;;;;;;5.32;1.75;;;3.00;98.00;;;;;;5076968;28;20421;-66
2022/12/27 08:45:49;;;;;;;5.28;2.10;;;3.40;98.00;;;;;;5075974;28;20353;-66
2022/12/27 08:48:14;;;;;;;4.50;2.08;;;4.10;98.00;;;;;;5076838;28;20067;-66
2022/12/27 08:50:40;;;;;;;5.07;2.05;;;4.90;98.00;;;;;;5072074;28;20405;-67
2022/12/27 08:53:05;;;;;;;6.82;3.30;;;6.00;96.90;;;;;;5077651;28;20413;-67
2022/12/27 08:55:33;;;;;;;6.50;2.28;;;6.70;91.90;;;;;;5072008;28;20104;-67
2022/12/27 08:58:00;;;;;;;5.63;1.90;;;7.60;89.70;;;;;;5075825;28;20077;-67
2022/12/27 09:00:26;;;;;;;5.28;2.08;;;8.70;85.80;;;;;;5075877;28;20040;-67
2022/12/27 09:02:52;;;;;;;5.97;2.17;;;9.40;82.80;;;;;;5077410;28;20020;-67
2022/12/27 09:05:18;;;;;;;4.93;1.40;;;10.40;81.10;;;;;;5074306;28;20055;-67
2022/12/27 09:07:46;;;;;;;4.75;1.63;;;11.30;75.90;;;;;;5073428;28;20110;-67
2022/12/27 09:10:11;;;;;;;3.72;1.52;;;11.40;74.20;;;;;;5073718;28;20436;-67
2022/12/27 09:12:37;;;;;;;6.00;2.10;;;11.60;73.80;;;;;;5077007;28;20034;-67
2022/12/27 09:15:02;;;;;;;5.50;2.40;;;12.00;72.30;;;;;;5075124;28;20024;-67
2022/12/27 09:17:28;;;;;;;6.28;1.85;;;12.40;72.00;;;;;;5075549;28;20103;-68
2022/12/27 09:19:54;;;;;;;6.45;1.70;;;12.30;70.70;;;;;;5074512;28;20032;-68
2022/12/27 09:22:19;;;;;;;4.72;1.10;;;12.30;70.60;;;;;;5075050;28;20036;-67
2022/12/27 09:24:45;;;;;;;3.67;1.13;;;12.60;69.30;;;;;;5075318;28;20033;-68
2022/12/27 09:27:11;;;;;;;3.03;1.00;;;13.50;69.50;;;;;;5073790;28;20056;-68
2022/12/27 09:29:36;;;;;;;2.92;1.05;;;14.10;68.30;;;;;;5076403;28;20019;-68
2022/12/27 09:32:02;;;;;;;3.20;0.90;;;14.80;66.30;;;;;;5072597;28;20107;-68
2022/12/27 09:34:27;;;;;;;1.52;0.70;;;15.30;63.10;;;;;;5074433;28;20427;-68
2022/12/27 09:36:53;;;;;;;4.00;1.02;;;14.40;64.70;;;;;;5073050;28;20013;-68
2022/12/27 09:39:18;;;;;;;3.58;0.73;;;14.40;64.80;;;;;;5076182;28;20029;-68
2022/12/27 09:42:02;;;;;;;4.80;1.67;;;13.40;65.90;;;;;;5066732;28;20420;-68
2022/12/27 09:44:35;;;;;;;6.55;2.22;;;12.40;68.90;;;;;;5075207;28;20436;-68
2022/12/27 09:47:18;;;;;;;5.60;2.33;;;12.70;68.00;;;;;;5071100;28;20045;-68
2022/12/27 09:49:52;;;;;;;5.55;2.20;;;12.10;68.30;;;;;;5074034;28;20048;-68
2022/12/27 09:52:59;;;;;;;4.13;1.73;;;11.70;70.80;;;;;;5074554;28;20029;-68
2022/12/27 09:55:42;;;;;;;3.22;1.00;;;11.30;71.20;;;;;;5061540;28;20039;-68
2022/12/27 09:58:41;;;;;;;3.67;1.20;;;10.10;72.00;;;;;;5074826;28;20036;-68
2022/12/27 10:01:27;;;;;;;6.97;1.65;;;9.40;74.90;;;;;;5070922;28;20078;-68
2022/12/27 10:03:53;;;;;;;5.68;1.45;;;9.00;76.30;;;;;;5072994;28;20032;-68
2022/12/27 10:06:24;;;;;;;4.88;1.10;;;8.60;78.20;;;;;;5073467;28;20033;-68
2022/12/27 10:09:14;;;;;;;4.43;1.52;;;8.50;78.20;;;;;;5072642;28;20032;-68
2022/12/27 10:11:53;;;;;;;5.72;1.52;;;8.20;79.30;;;;;;5071782;28;20020;-68
2022/12/27 10:14:30;;;;;;;4.32;1.35;;;7.90;80.20;;;;;;5076006;28;20021;-68
2022/12/27 10:17:24;;;;;;;6.55;1.80;;;7.50;81.00;;;;;;5068965;28;20024;-68
2022/12/27 10:20:01;;;;;;;;;;;7.60;82.10;;;;;;5027784;28;20039;-68
2022/12/27 10:22:26;;;;;;;7.70;1.60;;;8.00;81.50;;;;;;5069799;28;20313;-68
2022/12/27 10:24:57;;;;;;;5.10;1.70;;;8.10;81.60;;;;;;5072952;28;20078;-68
2022/12/27 10:27:26;;;;;;;5.10;1.88;;;8.70;80.70;;;;;;5074522;28;20310;-68
2022/12/27 10:29:53;;;;;;;4.80;1.60;;;8.70;79.70;;;;;;5055470;28;20428;-68
2022/12/27 10:32:19;;;;;;;6.88;1.70;;;8.80;79.80;;;;;;5072013;28;20128;-67
2022/12/27 10:34:46;;;;;;;3.95;1.42;;;8.80;79.60;;;;;;5052063;28;20103;-68
2022/12/27 10:37:14;;;;;;;4.50;1.50;;;8.60;80.30;;;;;;5074117;28;20024;-67
2022/12/27 10:39:41;;;;;;;4.50;1.15;;;8.80;79.70;;;;;;5071735;28;20116;-67
2022/12/27 10:42:14;;;;;;;3.35;1.30;;;9.10;78.80;;;;;;5070264;28;20035;-68
2022/12/27 10:44:39;;;;;;;4.40;1.40;;;9.20;79.20;;;;;;5069773;28;20062;-68
2022/12/27 10:47:05;;;;;;;5.90;1.83;;;8.80;78.60;;;;;;5071343;28;20025;-68
2022/12/27 10:49:32;;;;;;;5.07;1.80;;;8.90;80.20;;;;;;5071503;28;20039;-68
2022/12/27 10:52:14;;;;;;;6.68;1.65;;;8.80;78.30;;;;;;5070909;28;20391;-68
2022/12/27 10:54:56;;;;;;;7.50;1.85;;;8.60;79.50;;;;;;5053479;28;20024;-68
2022/12/27 10:57:32;;;;;;;8.15;2.42;;;8.70;79.30;;;;;;5060317;28;20028;-68
2022/12/27 11:00:19;;;;;;;4.22;1.42;;;8.50;80.30;;;;;;5079901;28;20052;-68
2022/12/27 11:02:52;;;;;;;5.85;1.77;;;8.70;78.80;;;;;;5075055;28;20024;-68
2022/12/27 11:05:24;;;;;;;4.20;1.67;;;8.60;80.20;;;;;;5076638;28;20115;-68
2022/12/27 11:07:50;;;;;;;4.72;1.67;;;8.50;78.20;;;;;;5081058;28;20671;-68
2022/12/27 11:10:20;;;;;;;5.13;1.50;;;8.20;81.00;;;;;;5077100;28;20025;-68
2022/12/27 11:13:01;;;;;;;3.80;1.42;;;8.50;80.20;;;;;;5057426;28;20025;-68
2022/12/27 11:15:30;;;;;;;6.80;2.33;;;8.70;78.30;;;;;;5079646;28;20024;-67
2022/12/27 11:18:01;;;;;;;7.35;1.55;;;8.60;78.80;;;;;;5080273;28;20024;-68
2022/12/27 11:20:37;;;;;;;4.57;1.30;;;8.40;78.30;;;;;;5077283;28;20313;-67
2022/12/27 11:23:08;;;;;;;4.95;1.63;;;8.30;78.10;;;;;;5078461;28;20024;-67
2022/12/27 11:25:36;;;;;;;3.60;1.30;;;8.20;79.00;;;;;;5080756;28;20416;-68
2022/12/27 11:28:19;;;;;;;4.43;1.50;;;8.20;79.90;;;;;;5072583;28;20060;-68
2022/12/27 11:30:56;;;;;;;5.90;1.63;;;8.20;80.10;;;;;;5080756;28;20062;-67
2022/12/27 11:33:36;;;;;;;4.05;1.50;;;8.30;79.70;;;;;;5081049;28;21003;-68
2022/12/27 11:36:02;;;;;;;8.13;2.42;;;8.50;80.20;;;;;;5080935;28;20107;-68
2022/12/27 11:38:30;;;;;;;6.25;2.90;;;8.80;79.80;;;;;;5080709;28;20035;-68
2022/12/27 11:41:14;;;;;;;5.15;1.83;;;8.80;79.70;;;;;;5081594;28;20044;-68
2022/12/27 11:43:50;;;;;;;6.07;1.95;;;8.60;79.90;;;;;;5080986;28;20028;-68
2022/12/27 11:46:45;;;;;;;5.85;1.60;;;8.40;81.00;;;;;;5081666;28;20048;-68
2022/12/27 11:49:22;;;;;;;6.95;1.85;;;8.30;81.40;;;;;;5077757;28;20035;-68
2022/12/27 11:52:23;;;;;;;5.40;1.58;;;8.10;81.30;;;;;;5076333;28;20032;-67
2022/12/27 11:55:07;;;;;;;5.30;1.73;;;8.20;80.60;;;;;;5077693;28;20031;-68
2022/12/27 11:58:00;;;;;;;6.05;1.98;;;8.10;81.20;;;;;;5073210;28;20121;-68
2022/12/27 12:00:35;;;;;;;5.63;2.15;;;8.60;79.60;;;;;;5054808;28;20067;-68
2022/12/27 12:03:41;;;;;;;5.85;2.00;;;8.80;79.40;;;;;;5058933;28;20433;-68
2022/12/27 12:06:37;;;;;;;6.15;2.60;;;9.10;78.20;;;;;;5036998;28;20041;-68
2022/12/27 12:09:28;;;;;;;6.40;2.20;;;9.30;78.80;;;;;;5051821;28;20053;-68
2022/12/27 12:12:13;;;;;;;3.90;1.33;;;8.90;77.40;;;;;;5058497;28;20033;-68
2022/12/27 12:15:09;;;;;;;6.30;1.58;;;8.20;80.10;;;;;;5058524;28;20075;-68
2022/12/27 12:18:39;;;;;;;4.18;1.67;;;7.80;81.90;;;;;;5055904;28;20515;-68
2022/12/27 12:21:24;;;;;;;6.20;1.60;;;7.90;82.30;;;;;;5003911;28;20041;-68
2022/12/27 12:24:19;;;;;;;5.50;1.50;;;8.30;80.30;;;;;;5013437;28;20029;-68
2022/12/27 12:27:24;;;;;;;4.85;1.50;;;8.30;81.30;;;;;;5048698;28;20086;-67
2022/12/27 12:29:49;;;;;;;4.35;1.40;;;8.40;81.10;;;;;;5057174;28;20025;-67
2022/12/27 12:32:33;;;;;;;5.50;1.52;;;8.20;80.60;;;;;;5058011;28;20055;-68
2022/12/27 12:35:30;;;;;;;4.47;1.42;;;8.10;82.30;;;;;;5050319;28;20422;-68
2022/12/27 12:38:03;;;;;;;5.72;1.77;;;8.10;81.10;;;;;;5052967;28;20171;-68
2022/12/27 12:40:57;;;;;;;5.03;1.98;;;7.80;82.90;;;;;;5053358;28;20455;-69
2022/12/27 12:43:55;;;;;;;8.63;3.28;;;8.00;83.00;;;;;;5045024;28;20071;-68
2022/12/27 12:46:24;;;;;;;6.65;2.20;;;8.20;81.90;;;;;;5052447;28;20035;-68
2022/12/27 12:49:09;;;;;;;5.70;2.13;;;8.10;81.40;;;;;;5052212;28;20032;-68
2022/12/27 12:51:54;;;;;;;4.28;1.50;;;7.80;82.30;;;;;;5056594;28;20059;-68
2022/12/27 12:54:35;;;;;;;8.10;1.63;;;7.70;82.80;;;;;;5055203;28;20075;-68
2022/12/27 12:57:38;;;;;;;8.30;1.65;;;7.60;82.90;;;;;;5056320;28;20044;-68
2022/12/27 13:00:28;;;;;;;5.18;1.50;;;7.50;82.60;;;;;;5063425;28;20154;-68
2022/12/27 13:02:56;;;;;;;5.55;1.48;;;7.50;82.80;;;;;;5070030;28;20021;-68
2022/12/27 13:05:31;;;;;;;6.03;1.85;;;7.50;82.20;;;;;;5066293;28;20031;-68
2022/12/27 13:08:05;;;;;;;6.30;1.40;;;7.60;82.20;;;;;;5077388;28;20025;-68
2022/12/27 13:10:39;;;;;;;7.60;1.70;;;7.80;81.70;;;;;;5077447;28;20020;-67
2022/12/27 13:13:42;;;;;;;5.05;1.60;;;7.90;82.20;;;;;;5077346;28;20365;-69
2022/12/27 13:16:26;;;;;;;6.40;2.45;;;8.00;81.90;;;;;;5077223;28;20025;-68
2022/12/27 13:19:16;;;;;;;5.35;1.52;;;8.00;80.70;;;;;;5074607;28;20107;-68
2022/12/27 13:22:00;;;;;;;5.85;1.35;;;7.70;80.80;;;;;;5074891;28;20036;-67
2022/12/27 13:24:29;;;;;;;;;;;7.60;82.20;;;;;;5077705;28;20028;-67
2022/12/27 13:27:38;;;;;;;5.38;1.70;;;7.50;81.90;;;;;;5076797;28;19954;-66
2022/12/27 13:30:22;;;;;;;8.20;1.73;;;7.40;81.20;;;;;;5077080;28;20039;-67
2022/12/27 13:33:02;;;;;;;6.60;1.77;;;7.50;81.50;;;;;;5076890;28;20016;-68
2022/12/27 13:35:41;;;;;;;5.90;1.50;;;7.40;81.60;;;;;;5075811;28;20016;-70
2022/12/27 13:38:10;;;;;;;6.50;2.40;;;7.30;82.90;;;;;;5056983;28;20029;-68
2022/12/27 13:40:53;;;;;;;4.28;1.60;;;7.10;82.30;;;;;;5057930;28;20137;-68
2022/12/27 13:44:09;;;;;;;4.38;1.30;;;6.90;82.70;;;;;;5076630;28;20031;-68
2022/12/27 13:47:00;;;;;;;6.55;2.25;;;6.80;84.00;;;;;;4976164;28;20066;-67
2022/12/27 13:49:48;;;;;;;6.03;1.92;;;6.70;83.70;;;;;;4958350;28;20092;-69
2022/12/27 13:52:16;;;;;;;16.60;11.25;;;6.70;84.50;;;;;;5063459;28;20439;-68
2022/12/27 13:55:03;;;;;;;9.20;3.67;;;6.80;84.70;;;;;;5076741;28;20036;-67
2022/12/27 13:58:01;;;;;;;22.65;11.40;;;6.80;83.60;;;;;;5076200;28;20035;-68
2022/12/27 14:01:08;;;;;;;10.30;5.88;;;6.70;83.80;;;;;;5075750;28;20047;-68
2022/12/27 14:03:45;;;;;;;11.30;5.80;;;6.60;84.80;;;;;;5071958;28;20020;-67
2022/12/27 14:06:17;;;;;;;13.38;5.85;;;6.40;85.60;;;;;;5071334;28;20090;-67
2022/12/27 14:09:25;;;;;;;9.82;4.78;;;6.30;85.70;;;;;;5068592;28;20032;-67
2022/12/27 14:12:25;;;;;;;23.92;11.02;;;6.10;86.30;;;;;;5063745;28;20020;-67
2022/12/27 14:14:56;;;;;;;47.42;24.40;;;6.00;87.00;;;;;;5071201;28;20039;-68
2022/12/27 14:17:42;;;;;;;14.68;5.53;;;6.00;87.80;;;;;;5072538;28;20029;-68
2022/12/27 14:20:29;;;;;;;8.02;3.60;;;5.90;88.80;;;;;;5072762;28;20028;-68
2022/12/27 14:23:20;;;;;;;15.98;5.30;;;5.80;89.10;;;;;;5055835;28;20457;-67
2022/12/27 14:26:20;;;;;;;18.58;10.32;;;5.60;89.40;;;;;;5068448;28;20094;-68
2022/12/27 14:29:10;;;;;;;8.60;3.15;;;5.60;90.00;;;;;;5071276;28;20421;-67
2022/12/27 14:32:03;;;;;;;7.88;3.15;;;5.50;91.10;;;;;;5075095;28;20025;-68
2022/12/27 14:34:46;;;;;;;7.35;2.97;;;5.30;91.40;;;;;;5074775;28;20282;-68
2022/12/27 14:38:02;;;;;;;6.63;2.47;;;5.20;91.90;;;;;;5075886;28;20025;-68
2022/12/27 14:40:52;;;;;;;5.68;2.38;;;5.10;92.50;;;;;;4997787;28;20037;-67
2022/12/27 14:43:49;;;;;;;10.10;4.38;;;4.90;93.10;;;;;;5036336;28;20033;-70
2022/12/27 14:46:33;;;;;;;10.85;4.15;;;4.90;93.90;;;;;;5053262;28;20030;-68
2022/12/27 14:49:29;;;;;;;6.20;2.35;;;4.80;93.90;;;;;;5075633;28;20088;-68
2022/12/27 14:52:36;;;;;;;8.30;3.42;;;4.70;94.10;;;;;;5055542;28;20029;-67
2022/12/27 14:55:05;;;;;;;9.35;5.90;;;4.60;94.70;;;;;;5055644;28;20464;-67
2022/12/27 14:57:37;;;;;;;7.70;3.40;;;4.50;95.00;;;;;;5058859;28;20047;-67
2022/12/27 15:00:27;;;;;;;11.57;5.63;;;4.40;95.50;;;;;;5073013;28;20052;-68
2022/12/27 15:03:17;;;;;;;9.75;5.07;;;4.30;95.30;;;;;;5055705;28;20025;-70
2022/12/27 15:06:14;;;;;;;12.10;5.85;;;4.30;95.90;;;;;;5067179;28;20028;-68
2022/12/27 15:08:55;;;;;;;12.25;5.80;;;4.10;96.00;;;;;;5074381;28;20025;-68
2022/12/27 15:11:35;;;;;;;19.42;9.38;;;4.00;97.30;;;;;;5060737;28;20040;-67